Decoded Metar for UMKK (KALININGRAD in RUSSIA) (IATA:KGD) | Meteo·Mobile Aviation Weather
aviador You're here:

UMKK Decoded Metar

KALININGRAD in RUSSIA
Report Time2019-02-19 12:00:00
UTC Time2019-02-19 12:37:15
Flight Rules vfr VFR
Wind230° at 12 kt
W.Decomp.*RWY 24: 11.6 kt HW 2.9 kt LCW
W.Rank230° ranks 2
Current wind is above 230° avg. (8.5)
Visibility9000 m
Phenomena:N/A
Clouds:N/A
Expected CloudBase > 3,200 ft AGL from Temp-Dew spread
CeilingNone
Temp10°C (ISA -5)
Dew Point02°C (58% RH)
AAT4.0°C
QNH1007 hPa
Density Alt-210 ft
Elevation69 ft
Report Wrong Elevation
Raw Report
UMKK 191200Z 23006MPS 9000 NSC 10/02 Q1007 R24/19//60 NOSIG RMK
QFE754/1005=

Extra information for UMKK:More info

Metar Taf Metar & Taf Last 4 Metars F.Rules Stats Wind Profile Meteogram Temp Stats Airport Information Weather charts Add Link Nearby VenuesMetar ALERT Operation Metar Decoded Social comments